createdAt,value
2022-10-21T00:01:29.917Z,96705.78
2022-10-21T00:03:59.000Z,96712.38
2022-10-21T00:06:27.721Z,96706.16
2022-10-21T00:08:57.950Z,96696.28
2022-10-21T00:11:28.280Z,96703.84
2022-10-21T00:13:57.120Z,96694.59
2022-10-21T00:16:25.907Z,96696.53
2022-10-21T00:18:54.740Z,96695.75
2022-10-21T00:21:23.806Z,96703.34
2022-10-21T00:23:52.608Z,96698.00
2022-10-21T00:26:22.720Z,96700.69
2022-10-21T00:28:57.318Z,96691.09
2022-10-21T00:31:26.544Z,96692.69
2022-10-21T00:33:55.309Z,96686.84
2022-10-21T00:36:24.108Z,96685.00
2022-10-21T00:38:52.904Z,96687.03
2022-10-21T00:41:21.709Z,96675.41
2022-10-21T00:43:59.573Z,96686.44
2022-10-21T00:47:13.954Z,96689.28
2022-10-21T00:49:55.927Z,96682.56
2022-10-21T00:52:25.551Z,96678.34
2022-10-21T00:54:58.364Z,96676.44
2022-10-21T00:57:28.572Z,96678.69
2022-10-21T01:00:00.366Z,96678.41
2022-10-21T01:02:30.344Z,96671.66
2022-10-21T01:05:02.006Z,96677.84
2022-10-21T01:07:36.334Z,96661.38
2022-10-21T01:10:08.477Z,96679.19
2022-10-21T01:12:43.114Z,96675.78
2022-10-21T01:15:34.751Z,96672.97
2022-10-21T01:18:12.383Z,96678.69
2022-10-21T01:21:34.322Z,96676.00
2022-10-21T01:24:30.113Z,96686.38
2022-10-21T01:26:58.823Z,96687.47
2022-10-21T01:29:55.650Z,96689.78
2022-10-21T01:32:31.377Z,96691.66
2022-10-21T01:35:09.388Z,96690.56
2022-10-21T01:37:38.410Z,96687.69
2022-10-21T01:40:15.577Z,96683.53
2022-10-21T01:42:50.213Z,96691.59
2022-10-21T01:45:43.824Z,96685.72
2022-10-21T01:48:20.109Z,96679.69
2022-10-21T01:50:56.164Z,96681.59
2022-10-21T01:53:29.754Z,96682.38
2022-10-21T01:56:02.811Z,96687.59
2022-10-21T01:58:36.017Z,96691.06
2022-10-21T02:01:09.269Z,96674.09
2022-10-21T02:03:42.953Z,96683.72
2022-10-21T02:06:14.663Z,96673.69
2022-10-21T02:08:44.077Z,96679.75
2022-10-21T02:11:13.520Z,96668.59
2022-10-21T02:14:11.207Z,96665.34
2022-10-21T02:16:41.823Z,96675.69
2022-10-21T02:19:20.823Z,96673.03
2022-10-21T02:21:53.370Z,96676.59
2022-10-21T02:24:31.548Z,96663.72
2022-10-21T02:27:00.621Z,96667.63
2022-10-21T02:29:34.904Z,96653.19
2022-10-21T02:32:11.003Z,96652.44
2022-10-21T02:35:01.523Z,96655.88
2022-10-21T02:37:33.558Z,96661.56
2022-10-21T02:40:18.850Z,96658.75
2022-10-21T02:42:54.056Z,96647.44
2022-10-21T02:45:23.925Z,96651.84
2022-10-21T02:47:53.055Z,96649.97
2022-10-21T02:50:22.130Z,96650.47
2022-10-21T02:52:50.959Z,96653.66
2022-10-21T02:55:19.876Z,96645.47
2022-10-21T02:57:48.840Z,96635.72
2022-10-21T03:00:18.684Z,96648.75
2022-10-21T03:02:47.671Z,96640.72
2022-10-21T03:05:16.829Z,96640.00
2022-10-21T03:07:45.650Z,96638.09
2022-10-21T03:10:15.395Z,96629.00
2022-10-21T03:12:44.234Z,96641.06
2022-10-21T03:15:13.132Z,96633.88
2022-10-21T03:17:42.220Z,96628.72
2022-10-21T03:20:11.383Z,96622.59
2022-10-21T03:22:40.364Z,96618.34
2022-10-21T03:25:09.626Z,96616.94
2022-10-21T03:27:38.757Z,96622.13
2022-10-21T03:30:08.880Z,96622.88
2022-10-21T03:32:38.071Z,96621.19
2022-10-21T03:35:07.672Z,96629.38
2022-10-21T03:37:36.646Z,96624.53
2022-10-21T03:40:12.293Z,96627.69
2022-10-21T03:42:41.743Z,96618.13
2022-10-21T03:45:11.465Z,96622.06
2022-10-21T03:47:40.302Z,96617.47
2022-10-21T03:50:13.064Z,96599.69
2022-10-21T03:52:44.543Z,96620.59
2022-10-21T03:55:13.461Z,96635.59
2022-10-21T03:57:42.675Z,96613.31
2022-10-21T04:02:41.656Z,96601.66
2022-10-21T04:05:10.862Z,96602.16
2022-10-21T04:07:40.037Z,96601.66
2022-10-21T04:10:10.783Z,96597.28
2022-10-21T04:12:41.422Z,96588.94
2022-10-21T04:15:14.306Z,96593.94
2022-10-21T04:17:45.846Z,96597.63
2022-10-21T04:20:14.929Z,96596.50
2022-10-21T04:22:43.760Z,96576.25
2022-10-21T04:25:12.551Z,96582.19
2022-10-21T04:27:41.399Z,96574.03
2022-10-21T04:30:10.523Z,96585.66
2022-10-21T04:32:39.586Z,96575.41
2022-10-21T04:35:08.449Z,96573.19
2022-10-21T04:37:40.592Z,96577.13
2022-10-21T04:40:10.254Z,96564.28
2022-10-21T04:42:39.181Z,96573.28
2022-10-21T04:45:11.533Z,96558.03
2022-10-21T04:47:40.440Z,96570.41
2022-10-21T04:50:09.796Z,96563.66
2022-10-21T04:52:39.084Z,96557.50
2022-10-21T04:55:09.317Z,96557.16
2022-10-21T04:57:38.251Z,96552.81
2022-10-21T05:00:09.295Z,96557.72
2022-10-21T05:02:38.446Z,96550.16
2022-10-21T05:05:07.848Z,96555.44
2022-10-21T05:07:36.605Z,96556.06
2022-10-21T05:10:06.033Z,96549.84
2022-10-21T05:15:05.073Z,96543.00
2022-10-21T05:17:33.990Z,96535.00
2022-10-21T05:20:04.752Z,96540.00
2022-10-21T05:22:33.792Z,96539.94
2022-10-21T05:25:02.622Z,96550.47
2022-10-21T05:27:31.598Z,96544.94
2022-10-21T05:30:00.707Z,96535.63
2022-10-21T05:32:29.784Z,96535.34
2022-10-21T05:34:58.749Z,96545.50
2022-10-21T05:37:27.983Z,96529.94
2022-10-21T05:39:56.892Z,96520.84
2022-10-21T05:42:25.816Z,96534.88
2022-10-21T05:44:54.699Z,96524.53
2022-10-21T05:47:24.649Z,96517.06
2022-10-21T05:49:53.648Z,96510.38
2022-10-21T05:52:22.553Z,96517.06
2022-10-21T05:54:51.408Z,96513.34
2022-10-21T05:57:20.294Z,96515.53
2022-10-21T05:59:49.210Z,96509.50
2022-10-21T06:02:19.280Z,96511.66
2022-10-21T06:04:48.585Z,96504.97
2022-10-21T06:07:17.505Z,96509.59
2022-10-21T06:09:46.255Z,96497.47
2022-10-21T06:12:15.097Z,96508.63
2022-10-21T06:14:44.023Z,96506.31
2022-10-21T06:17:12.993Z,96506.19
2022-10-21T06:19:43.214Z,96497.00
2022-10-21T06:22:13.730Z,96493.25
2022-10-21T06:24:42.612Z,96503.34
2022-10-21T06:27:11.461Z,96478.72
2022-10-21T06:29:40.473Z,96471.84
2022-10-21T06:32:09.309Z,96474.53
2022-10-21T06:34:38.372Z,96476.97
2022-10-21T06:37:07.666Z,96478.38
2022-10-21T06:39:36.477Z,96480.72
2022-10-21T06:42:05.402Z,96475.16
2022-10-21T06:44:43.521Z,96468.34
2022-10-21T06:47:12.696Z,96464.69
2022-10-21T06:49:42.219Z,96461.66
2022-10-21T06:52:11.291Z,96466.38
2022-10-21T06:54:40.297Z,96467.41
2022-10-21T06:57:09.079Z,96463.81
2022-10-21T06:59:37.878Z,96469.75
2022-10-21T07:02:07.631Z,96464.06
2022-10-21T07:04:36.773Z,96459.88
2022-10-21T07:07:06.234Z,96460.81
2022-10-21T07:09:35.320Z,96464.06
2022-10-21T07:12:04.310Z,96461.28
2022-10-21T07:14:33.034Z,96457.63
2022-10-21T07:17:01.882Z,96449.31
2022-10-21T07:19:30.758Z,96460.06
2022-10-21T07:21:59.877Z,96438.84
2022-10-21T07:24:28.714Z,96447.91
2022-10-21T07:26:58.147Z,96442.63
2022-10-21T07:29:27.092Z,96431.41
2022-10-21T07:31:55.944Z,96428.06
2022-10-21T07:34:26.653Z,96430.59
2022-10-21T07:36:55.500Z,96432.44
2022-10-21T07:39:27.588Z,96431.44
2022-10-21T07:41:58.839Z,96419.34
2022-10-21T07:44:27.955Z,96432.69
2022-10-21T07:46:56.915Z,96429.34
2022-10-21T07:49:26.130Z,96436.47
2022-10-21T07:51:55.117Z,96425.47
2022-10-21T07:54:24.247Z,96434.19
2022-10-21T07:56:53.158Z,96432.84
2022-10-21T07:59:24.165Z,96430.06
2022-10-21T08:01:54.619Z,96414.28
2022-10-21T08:04:32.541Z,96423.63
2022-10-21T08:07:01.368Z,96426.50
2022-10-21T08:09:30.235Z,96421.75
2022-10-21T08:11:59.518Z,96425.41
2022-10-21T08:14:28.309Z,96430.25
2022-10-21T08:16:57.165Z,96424.19
2022-10-21T08:19:30.046Z,96420.78
2022-10-21T08:21:59.942Z,96421.06
2022-10-21T08:24:29.444Z,96415.38
2022-10-21T08:26:58.340Z,96416.91
2022-10-21T08:29:27.354Z,96413.84
2022-10-21T08:31:56.169Z,96417.69
2022-10-21T08:34:25.089Z,96410.69
2022-10-21T08:36:53.982Z,96410.38
2022-10-21T08:39:25.618Z,96417.41
2022-10-21T08:41:59.963Z,96428.13
2022-10-21T08:44:45.398Z,96425.66
2022-10-21T08:47:45.846Z,96431.06
2022-10-21T08:50:23.070Z,96430.56
2022-10-21T08:52:58.067Z,96432.47
2022-10-21T08:55:37.703Z,96430.75
2022-10-21T08:58:06.870Z,96435.75
2022-10-21T09:00:47.784Z,96423.53
2022-10-21T09:03:56.082Z,96436.00
2022-10-21T09:06:49.350Z,96433.09
2022-10-21T09:09:29.012Z,96433.34
2022-10-21T09:12:21.280Z,96433.16
2022-10-21T09:15:11.543Z,96430.59
2022-10-21T09:17:52.799Z,96433.22
2022-10-21T09:20:36.545Z,96433.31
2022-10-21T09:23:43.590Z,96431.34
2022-10-21T09:26:15.411Z,96442.09
2022-10-21T09:28:45.367Z,96436.97
2022-10-21T09:31:18.377Z,96444.56
2022-10-21T09:33:59.047Z,96443.69
2022-10-21T09:36:48.594Z,96445.25
2022-10-21T09:39:40.353Z,96445.63
2022-10-21T09:42:29.250Z,96448.91
2022-10-21T09:45:01.910Z,96448.31
2022-10-21T09:47:33.699Z,96440.47
2022-10-21T09:50:08.057Z,96446.28
2022-10-21T09:52:38.537Z,96440.81
2022-10-21T09:55:13.716Z,96428.41
2022-10-21T09:57:55.195Z,96439.41
2022-10-21T10:00:50.819Z,96433.47
2022-10-21T10:03:38.047Z,96453.53
2022-10-21T10:06:07.129Z,96452.94
2022-10-21T10:08:47.975Z,96457.81
2022-10-21T10:11:23.827Z,96459.38
2022-10-21T10:13:54.232Z,96464.72
2022-10-21T10:16:30.240Z,96460.78
2022-10-21T10:19:23.370Z,96461.91
2022-10-21T10:22:12.995Z,96466.13
2022-10-21T10:24:43.382Z,96470.69
2022-10-21T10:27:27.250Z,96466.13
2022-10-21T10:29:59.162Z,96466.59
2022-10-21T10:32:32.286Z,96467.69
2022-10-21T10:35:05.558Z,96448.06
2022-10-21T10:37:37.528Z,96466.94
2022-10-21T10:40:09.974Z,96454.19
2022-10-21T10:42:46.471Z,96461.41
2022-10-21T10:45:22.755Z,96467.38
2022-10-21T10:47:54.590Z,96466.75
2022-10-21T10:50:38.721Z,96469.28
2022-10-21T10:53:30.109Z,96470.38
2022-10-21T10:56:31.155Z,96467.69
2022-10-21T10:59:18.235Z,96470.81
2022-10-21T11:02:09.668Z,96470.22
2022-10-21T11:04:42.893Z,96469.59
2022-10-21T11:07:36.848Z,96464.56
2022-10-21T11:10:14.240Z,96467.22
2022-10-21T11:12:43.140Z,96457.03
2022-10-21T11:15:16.550Z,96475.88
2022-10-21T11:18:17.107Z,96480.25
2022-10-21T11:21:15.114Z,96480.25
2022-10-21T11:24:08.180Z,96490.63
2022-10-21T11:26:54.926Z,96484.19
2022-10-21T11:29:28.859Z,96481.50
2022-10-21T11:32:22.258Z,96492.19
2022-10-21T11:35:01.054Z,96492.34
2022-10-21T11:37:50.712Z,96489.84
2022-10-21T11:40:34.682Z,96488.72
2022-10-21T11:43:16.602Z,96496.75
2022-10-21T11:46:09.464Z,96481.69
2022-10-21T11:49:05.540Z,96490.00
2022-10-21T11:52:04.083Z,96496.28
2022-10-21T11:55:07.967Z,96497.53
2022-10-21T11:57:54.672Z,96494.09
2022-10-21T12:00:27.196Z,96497.69
2022-10-21T12:03:08.047Z,96507.59
2022-10-21T12:05:46.797Z,96493.75
2022-10-21T12:08:39.688Z,96510.72
2022-10-21T12:11:29.998Z,96496.13
2022-10-21T12:14:01.318Z,96521.09
2022-10-21T12:16:34.877Z,96527.38
2022-10-21T12:19:07.665Z,96518.28
2022-10-21T12:21:40.050Z,96526.28
2022-10-21T12:24:12.039Z,96518.72
2022-10-21T12:26:49.484Z,96518.09
2022-10-21T12:29:18.187Z,96529.09
2022-10-21T12:31:57.610Z,96523.25
2022-10-21T12:34:26.593Z,96527.06
2022-10-21T12:36:55.617Z,96531.13
2022-10-21T12:39:36.704Z,96526.41
2022-10-21T12:42:16.913Z,96525.75
2022-10-21T12:44:53.508Z,96527.78
2022-10-21T12:47:25.084Z,96524.34
2022-10-21T12:50:30.301Z,96517.75
2022-10-21T12:53:20.690Z,96529.19
2022-10-21T12:55:54.010Z,96532.19
2022-10-21T12:58:38.170Z,96520.88
2022-10-21T13:01:36.692Z,96518.03
2022-10-21T13:04:26.424Z,96526.66
2022-10-21T13:06:58.340Z,96523.34
2022-10-21T13:09:52.698Z,96536.38
2022-10-21T13:12:26.559Z,96530.84
2022-10-21T13:15:24.194Z,96541.38
2022-10-21T13:17:54.069Z,96527.41
2022-10-21T13:20:26.430Z,96537.25
2022-10-21T13:23:16.925Z,96534.59
2022-10-21T13:25:48.303Z,96530.66
2022-10-21T13:28:22.924Z,96530.19
2022-10-21T13:30:51.654Z,96532.38
2022-10-21T13:33:25.837Z,96533.31
2022-10-21T13:36:03.111Z,96527.78
2022-10-21T13:38:35.478Z,96532.66
2022-10-21T13:41:08.071Z,96535.16
2022-10-21T13:43:47.692Z,96538.13
2022-10-21T13:46:18.127Z,96537.03
2022-10-21T13:48:49.532Z,96536.53
2022-10-21T13:51:27.014Z,96522.09
2022-10-21T13:54:00.931Z,96539.06
2022-10-21T13:56:34.450Z,96537.94
2022-10-21T13:59:05.996Z,96543.28
2022-10-21T14:01:50.432Z,96546.25
2022-10-21T14:04:25.564Z,96539.22
2022-10-21T14:07:09.183Z,96537.81
2022-10-21T14:09:48.751Z,96540.47
2022-10-21T14:12:33.444Z,96538.31
2022-10-21T14:15:17.641Z,96542.53
2022-10-21T14:17:58.545Z,96547.41
2022-10-21T14:20:42.092Z,96542.97
2022-10-21T14:23:20.226Z,96543.44
2022-10-21T14:25:50.478Z,96540.09
2022-10-21T14:28:21.532Z,96535.94
2022-10-21T14:30:53.796Z,96542.53
2022-10-21T14:33:29.161Z,96548.00
2022-10-21T14:36:15.797Z,96552.34
2022-10-21T14:39:00.806Z,96547.75
2022-10-21T14:41:38.140Z,96553.22
2022-10-21T14:44:21.633Z,96549.41
2022-10-21T14:46:54.871Z,96548.75
2022-10-21T14:49:33.623Z,96550.44
2022-10-21T14:52:06.661Z,96553.72
2022-10-21T14:54:44.175Z,96558.53
2022-10-21T14:57:35.098Z,96559.63
2022-10-21T15:00:05.807Z,96565.25
2022-10-21T15:02:38.398Z,96563.66
2022-10-21T15:05:49.340Z,96573.44
2022-10-21T15:08:21.391Z,96569.53
2022-10-21T15:11:04.591Z,96581.66
2022-10-21T15:13:34.211Z,96579.97
2022-10-21T15:16:04.599Z,96581.56
2022-10-21T15:18:45.228Z,96584.38
2022-10-21T15:21:37.552Z,96581.41
2022-10-21T15:24:08.055Z,96589.13
2022-10-21T15:26:40.183Z,96594.16
2022-10-21T15:29:29.225Z,96591.50
2022-10-21T15:31:58.823Z,96596.50
2022-10-21T15:34:31.639Z,96587.84
2022-10-21T15:37:00.437Z,96598.88
2022-10-21T15:39:29.974Z,96596.88
2022-10-21T15:41:59.633Z,96610.97
2022-10-21T15:44:31.221Z,96610.50
2022-10-21T15:47:03.145Z,96614.91
2022-10-21T15:49:47.286Z,96616.47
2022-10-21T15:52:16.109Z,96615.72
2022-10-21T15:54:45.185Z,96613.81
2022-10-21T15:57:18.054Z,96616.13
2022-10-21T15:59:47.861Z,96612.41
2022-10-21T16:02:18.736Z,96617.00
2022-10-21T16:04:47.887Z,96610.16
2022-10-21T16:07:23.729Z,96617.88
2022-10-21T16:09:52.582Z,96618.38
2022-10-21T16:12:23.231Z,96618.59
2022-10-21T16:14:52.096Z,96618.19
2022-10-21T16:17:21.849Z,96615.63
2022-10-21T16:19:50.689Z,96615.63
2022-10-21T16:22:22.972Z,96618.22
2022-10-21T16:24:51.735Z,96624.22
2022-10-21T16:27:31.246Z,96626.09
2022-10-21T16:30:27.827Z,96625.13
2022-10-21T16:32:57.809Z,96620.56
2022-10-21T16:35:26.940Z,96627.25
2022-10-21T16:37:56.718Z,96622.16
2022-10-21T16:40:29.809Z,96620.94
2022-10-21T16:42:58.885Z,96629.81
2022-10-21T16:45:32.632Z,96629.94
2022-10-21T16:48:04.520Z,96636.41
2022-10-21T16:50:41.097Z,96638.50
2022-10-21T16:53:15.575Z,96629.22
2022-10-21T16:55:44.764Z,96636.59
2022-10-21T16:58:13.875Z,96641.16
2022-10-21T17:00:43.756Z,96640.03
2022-10-21T17:03:13.150Z,96637.13
2022-10-21T17:05:42.028Z,96645.88
2022-10-21T17:08:11.228Z,96649.25
2022-10-21T17:10:40.046Z,96644.91
2022-10-21T17:13:10.206Z,96637.88
2022-10-21T17:15:39.779Z,96635.28
2022-10-21T17:18:11.817Z,96640.53
2022-10-21T17:20:44.030Z,96639.34
2022-10-21T17:23:12.883Z,96636.06
2022-10-21T17:25:41.697Z,96635.00
2022-10-21T17:28:10.465Z,96644.13
2022-10-21T17:30:39.241Z,96639.00
2022-10-21T17:33:10.622Z,96641.84
2022-10-21T17:35:42.253Z,96640.16
2022-10-21T17:38:10.985Z,96642.22
2022-10-21T17:40:39.801Z,96644.78
2022-10-21T17:43:08.585Z,96646.31
2022-10-21T17:45:37.793Z,96642.41
2022-10-21T17:48:06.807Z,96648.72
2022-10-21T17:50:37.018Z,96657.94
2022-10-21T17:53:05.847Z,96662.50
2022-10-21T17:55:34.588Z,96659.38
2022-10-21T17:58:03.609Z,96660.16
2022-10-21T18:00:32.941Z,96657.19
2022-10-21T18:03:01.804Z,96660.34
2022-10-21T18:05:30.660Z,96645.34
2022-10-21T18:07:59.430Z,96653.84
2022-10-21T18:10:28.253Z,96658.09
2022-10-21T18:12:57.031Z,96662.31
2022-10-21T18:15:28.421Z,96664.00
2022-10-21T18:17:57.237Z,96665.59
2022-10-21T18:20:26.089Z,96669.16
2022-10-21T18:22:54.925Z,96660.97
2022-10-21T18:25:23.769Z,96663.22
2022-10-21T18:27:52.569Z,96666.97
2022-10-21T18:30:21.461Z,96670.13
2022-10-21T18:32:50.240Z,96673.88
2022-10-21T18:35:20.510Z,96677.31
2022-10-21T18:37:50.383Z,96678.91
2022-10-21T18:40:20.091Z,96680.78
2022-10-21T18:42:49.068Z,96678.72
2022-10-21T18:45:17.921Z,96680.50
2022-10-21T18:47:48.060Z,96673.28
2022-10-21T18:50:17.352Z,96685.72
2022-10-21T18:52:46.224Z,96673.16
2022-10-21T18:55:15.047Z,96669.72
2022-10-21T18:57:44.084Z,96686.38
2022-10-21T19:00:13.859Z,96681.34
2022-10-21T19:02:42.826Z,96676.44
2022-10-21T19:05:11.825Z,96689.16
2022-10-21T19:07:40.724Z,96679.88
2022-10-21T19:10:09.944Z,96684.44
2022-10-21T19:12:38.740Z,96691.16
2022-10-21T19:15:08.129Z,96692.22
2022-10-21T19:17:37.803Z,96688.59
2022-10-21T19:20:07.651Z,96689.66
2022-10-21T19:22:36.420Z,96692.53
2022-10-21T19:25:05.833Z,96690.94
2022-10-21T19:27:34.619Z,96682.47
2022-10-21T19:30:03.503Z,96690.56
2022-10-21T19:32:32.964Z,96701.53
2022-10-21T19:35:01.725Z,96706.97
2022-10-21T19:37:32.165Z,96704.09
2022-10-21T19:40:00.914Z,96704.09
2022-10-21T19:42:32.782Z,96693.06
2022-10-21T19:45:01.613Z,96710.72
2022-10-21T19:47:32.083Z,96702.53
2022-10-21T19:50:00.870Z,96699.28
2022-10-21T19:52:30.204Z,96704.09
2022-10-21T19:54:59.016Z,96696.53
2022-10-21T19:57:27.902Z,96713.78
2022-10-21T19:59:56.719Z,96711.41
2022-10-21T20:02:26.166Z,96715.97
2022-10-21T20:04:55.059Z,96713.78
2022-10-21T20:07:23.968Z,96705.09
2022-10-21T20:09:52.884Z,96713.19
2022-10-21T20:12:21.740Z,96709.63
2022-10-21T20:14:50.533Z,96707.47
2022-10-21T20:17:19.375Z,96708.53
2022-10-21T20:19:49.365Z,96712.19
2022-10-21T20:22:18.363Z,96710.59
2022-10-21T20:24:47.135Z,96709.31
2022-10-21T20:27:15.948Z,96710.72
2022-10-21T20:29:44.960Z,96713.88
2022-10-21T20:32:13.766Z,96709.63
2022-10-21T20:34:44.037Z,96714.03
2022-10-21T20:37:12.793Z,96716.72
2022-10-21T20:39:41.560Z,96716.22
2022-10-21T20:42:10.580Z,96713.56
2022-10-21T20:44:39.500Z,96714.94
2022-10-21T20:47:08.315Z,96729.84
2022-10-21T20:49:37.082Z,96730.84
2022-10-21T20:52:05.852Z,96723.81
2022-10-21T20:54:34.702Z,96720.44
2022-10-21T20:57:03.510Z,96717.69
2022-10-21T20:59:32.312Z,96732.44
2022-10-21T21:02:01.749Z,96729.38
2022-10-21T21:04:30.787Z,96729.38
2022-10-21T21:06:59.652Z,96729.69
2022-10-21T21:09:50.255Z,96737.00
2022-10-21T21:12:17.863Z,96737.00
2022-10-21T21:14:46.629Z,96725.28
2022-10-21T21:17:15.382Z,96740.56
2022-10-21T21:19:44.303Z,96747.00
2022-10-21T21:22:13.086Z,96747.41
2022-10-21T21:24:42.785Z,96749.56
2022-10-21T21:27:11.564Z,96761.31
2022-10-21T21:29:40.375Z,96761.31
2022-10-21T21:32:09.259Z,96770.00
2022-10-21T21:34:39.251Z,96762.00
2022-10-21T21:37:08.078Z,96760.47
2022-10-21T21:39:36.806Z,96775.59
2022-10-21T21:42:05.714Z,96771.53
2022-10-21T21:44:35.010Z,96761.59
2022-10-21T21:47:03.786Z,96771.03
2022-10-21T21:49:32.594Z,96771.84
2022-10-21T21:52:01.379Z,96764.44
2022-10-21T21:54:30.314Z,96763.97
2022-10-21T21:57:26.385Z,96771.13
2022-10-21T21:59:48.131Z,96769.44
2022-10-21T22:02:17.350Z,96778.25
2022-10-21T22:04:46.995Z,96783.75
2022-10-21T22:07:15.900Z,96787.22
2022-10-21T22:09:44.749Z,96785.94
2022-10-21T22:12:14.823Z,96791.47
2022-10-21T22:14:43.947Z,96786.63
2022-10-21T22:17:12.782Z,96780.50
2022-10-21T22:19:41.668Z,96783.34
2022-10-21T22:22:10.388Z,96780.09
2022-10-21T22:24:39.293Z,96782.16
2022-10-21T22:27:08.116Z,96794.69
2022-10-21T22:29:37.210Z,96798.94
2022-10-21T22:32:06.120Z,96799.75
2022-10-21T22:34:34.937Z,96800.81
2022-10-21T22:37:03.817Z,96804.78
2022-10-21T22:39:32.688Z,96794.41
2022-10-21T22:42:01.483Z,96801.59
2022-10-21T22:44:30.247Z,96811.69
2022-10-21T22:46:59.070Z,96809.50
2022-10-21T22:49:27.922Z,96815.59
2022-10-21T22:51:56.798Z,96807.75
2022-10-21T22:54:47.939Z,96806.16
2022-10-21T22:57:14.296Z,96812.25
2022-10-21T22:59:44.150Z,96810.09
2022-10-21T23:02:13.930Z,96810.88
2022-10-21T23:04:42.785Z,96808.53
2022-10-21T23:07:11.705Z,96818.41
2022-10-21T23:09:40.505Z,96802.50
2022-10-21T23:12:09.316Z,96806.50
2022-10-21T23:14:38.073Z,96817.41
2022-10-21T23:17:06.848Z,96808.06
2022-10-21T23:19:35.625Z,96814.16
2022-10-21T23:22:04.435Z,96820.69
2022-10-21T23:24:33.237Z,96812.31
2022-10-21T23:27:02.039Z,96828.31
2022-10-21T23:29:30.898Z,96825.13
2022-10-21T23:31:59.663Z,96822.78
2022-10-21T23:34:28.446Z,96817.84
2022-10-21T23:36:57.601Z,96815.38
2022-10-21T23:39:26.703Z,96821.91
2022-10-21T23:41:55.820Z,96821.00
2022-10-21T23:44:24.572Z,96829.47
2022-10-21T23:46:53.438Z,96824.72
2022-10-21T23:49:22.568Z,96825.72
2022-10-21T23:51:51.645Z,96831.03
2022-10-21T23:54:20.458Z,96837.75
2022-10-21T23:56:49.315Z,96831.16
2022-10-21T23:59:18.059Z,96836.78
